Time;durP1;ratioP1;P1;durP2;ratioP2;P2;SDS_P1;SDS_P2;PMS_P1;PMS_P2;Temp;Humidity;BMP_temperature;BMP_pressure;BME280_temperature;BME280_humidity;BME280_pressure;Samples;Min_cycle;Max_cycle;Signal;HPM_P1;HPM_P2
2023/08/26 00:00:15;;;;;;;42.75;27.38;;;19.40;99.90;;;;;;5020161;28;20033;-59
2023/08/26 00:02:41;;;;;;;45.83;26.55;;;19.50;99.90;;;;;;5022020;28;20111;-59
2023/08/26 00:05:07;;;;;;;42.95;25.70;;;19.60;99.90;;;;;;5020594;28;20037;-59
2023/08/26 00:07:32;;;;;;;43.55;26.20;;;19.50;99.90;;;;;;5022030;28;20026;-58
2023/08/26 00:09:58;;;;;;;42.80;25.40;;;19.50;99.90;;;;;;5025331;28;20097;-59
2023/08/26 00:12:23;;;;;;;46.15;26.20;;;19.50;99.90;;;;;;5022462;28;20045;-59
2023/08/26 00:14:49;;;;;;;46.00;25.00;;;19.60;99.90;;;;;;5025898;28;20033;-59
2023/08/26 00:17:14;;;;;;;44.58;25.95;;;19.50;99.90;;;;;;5024851;28;20072;-59
2023/08/26 00:19:40;;;;;;;43.50;26.17;;;19.60;99.90;;;;;;5019124;28;20485;-58
2023/08/26 00:22:05;;;;;;;48.03;25.67;;;19.50;99.90;;;;;;5022289;28;20398;-59
2023/08/26 00:24:32;;;;;;;48.17;27.40;;;19.60;99.90;;;;;;5023026;28;20068;-59
2023/08/26 00:26:58;;;;;;;54.15;27.15;;;19.50;99.90;;;;;;5025365;28;20038;-59
2023/08/26 00:29:24;;;;;;;45.25;27.15;;;19.50;99.90;;;;;;5024531;28;20099;-59
2023/08/26 00:31:49;;;;;;;46.83;25.25;;;19.60;99.90;;;;;;5022225;28;20448;-59
2023/08/26 00:34:15;;;;;;;42.17;23.58;;;19.40;99.90;;;;;;5023744;28;20041;-59
2023/08/26 00:36:40;;;;;;;43.45;25.58;;;19.30;99.90;;;;;;5023983;28;20129;-59
2023/08/26 00:39:06;;;;;;;44.67;24.17;;;19.30;99.90;;;;;;5024779;28;20061;-59
2023/08/26 00:41:31;;;;;;;39.85;24.13;;;19.30;99.90;;;;;;5022446;28;20279;-59
2023/08/26 00:43:57;;;;;;;41.70;24.83;;;19.30;99.90;;;;;;5027352;28;20029;-59
2023/08/26 00:46:25;;;;;;;44.10;25.95;;;19.30;99.90;;;;;;5021695;28;20128;-60
2023/08/26 00:48:50;;;;;;;39.15;24.35;;;19.30;99.90;;;;;;5024613;28;20516;-58
2023/08/26 00:51:17;;;;;;;38.17;23.17;;;19.20;99.90;;;;;;5024189;28;20065;-59
2023/08/26 00:53:43;;;;;;;47.25;24.70;;;19.20;99.90;;;;;;5024234;28;20460;-59
2023/08/26 00:56:09;;;;;;;40.78;24.88;;;19.20;99.90;;;;;;5021690;28;20033;-59
2023/08/26 00:58:36;;;;;;;44.50;25.38;;;19.20;99.90;;;;;;5023200;28;20319;-59
2023/08/26 01:01:02;;;;;;;39.97;25.67;;;19.30;99.90;;;;;;5004685;28;20430;-59
2023/08/26 01:03:28;;;;;;;46.00;24.67;;;19.20;99.90;;;;;;5023903;28;20039;-59
2023/08/26 01:05:54;;;;;;;41.45;26.50;;;19.30;99.90;;;;;;5024592;28;20219;-59
2023/08/26 01:08:20;;;;;;;43.67;25.08;;;19.30;99.90;;;;;;5022572;28;20029;-59
2023/08/26 01:11:20;;;;;;;43.72;26.65;;;19.20;99.90;;;;;;5024547;28;20544;-59
2023/08/26 01:13:53;;;;;;;41.35;24.23;;;19.10;99.90;;;;;;5024900;28;20468;-59
2023/08/26 01:16:22;;;;;;;48.13;25.95;;;19.10;99.90;;;;;;5021330;28;20025;-59
2023/08/26 01:18:48;;;;;;;41.60;24.80;;;19.10;99.90;;;;;;5022880;28;20045;-59
2023/08/26 01:21:14;;;;;;;26.38;13.45;;;19.10;99.90;;;;;;5022373;28;20412;-58
2023/08/26 01:23:42;;;;;;;16.98;7.78;;;18.80;99.90;;;;;;5023040;28;20045;-59
2023/08/26 01:26:08;;;;;;;11.02;5.80;;;18.50;99.90;;;;;;5022575;28;20473;-59
2023/08/26 01:28:34;;;;;;;12.73;4.93;;;18.30;99.90;;;;;;5019471;28;20041;-58
2023/08/26 01:31:04;;;;;;;17.38;4.63;;;18.20;99.90;;;;;;5022521;28;20080;-58
2023/08/26 01:33:36;;;;;;;9.63;3.92;;;18.10;99.90;;;;;;5021632;28;20041;-58
2023/08/26 01:36:07;;;;;;;15.55;3.63;;;18.00;99.90;;;;;;5021269;28;20173;-57
2023/08/26 01:38:33;;;;;;;21.27;4.03;;;17.80;99.90;;;;;;5021920;28;20041;-58
2023/08/26 01:41:01;;;;;;;12.57;3.40;;;17.80;99.90;;;;;;5023463;28;20051;-58
2023/08/26 01:43:28;;;;;;;9.00;3.00;;;17.70;99.90;;;;;;5022547;28;20040;-58
2023/08/26 01:45:53;;;;;;;10.77;2.95;;;17.60;99.90;;;;;;5022613;28;20034;-58
2023/08/26 01:48:19;;;;;;;12.43;3.35;;;17.40;99.90;;;;;;5018939;28;20451;-58
2023/08/26 01:50:45;;;;;;;10.93;2.88;;;17.30;99.90;;;;;;5022763;28;20128;-58
2023/08/26 01:53:11;;;;;;;10.60;2.92;;;17.10;99.90;;;;;;5021689;28;20121;-59
2023/08/26 01:55:36;;;;;;;11.38;2.50;;;17.10;99.90;;;;;;5019716;28;20038;-58
2023/08/26 01:58:02;;;;;;;9.05;2.38;;;17.30;1.00;;;;;;5022218;28;20041;-58
2023/08/26 02:00:28;;;;;;;14.48;2.88;;;17.20;99.90;;;;;;5023876;28;20064;-58
2023/08/26 02:02:53;;;;;;;14.05;3.10;;;17.10;99.90;;;;;;5018315;28;20459;-58
2023/08/26 02:05:19;;;;;;;11.48;2.90;;;17.10;99.90;;;;;;5020804;28;20049;-59
2023/08/26 02:07:44;;;;;;;10.98;3.00;;;17.00;1.00;;;;;;5005734;28;20034;-57
2023/08/26 02:10:10;;;;;;;13.35;3.17;;;17.10;1.00;;;;;;5020696;28;20170;-58
2023/08/26 02:12:35;;;;;;;13.35;2.65;;;17.10;1.00;;;;;;5021125;28;20041;-58
2023/08/26 02:15:02;;;;;;;8.65;3.15;;;17.10;1.00;;;;;;5022509;28;20127;-58
2023/08/26 02:17:28;;;;;;;10.25;2.63;;;17.00;99.90;;;;;;5022040;28;20056;-58
2023/08/26 02:19:54;;;;;;;13.85;3.05;;;16.90;1.00;;;;;;5021914;28;20397;-58
2023/08/26 02:22:20;;;;;;;11.88;3.45;;;16.90;1.00;;;;;;5018329;28;20033;-58
2023/08/26 02:24:46;;;;;;;10.90;2.95;;;16.80;1.00;;;;;;5019182;28;20493;-58
2023/08/26 02:27:13;;;;;;;10.63;2.88;;;16.90;1.00;;;;;;5020831;28;20580;-58
2023/08/26 02:29:39;;;;;;;14.60;2.88;;;16.90;1.00;;;;;;5018714;28;20123;-58
2023/08/26 02:32:05;;;;;;;10.73;3.20;;;16.90;68.40;;;;;;5022267;28;20120;-58
2023/08/26 02:34:30;;;;;;;11.82;3.17;;;16.70;1.00;;;;;;5011066;28;20128;-58
2023/08/26 02:36:56;;;;;;;10.90;2.83;;;16.60;1.00;;;;;;5008198;28;20029;-58
2023/08/26 02:39:21;;;;;;;8.60;2.90;;;16.70;99.90;;;;;;5021291;28;20045;-58
2023/08/26 02:41:47;;;;;;;11.98;3.05;;;16.80;1.00;;;;;;5023663;28;20118;-58
2023/08/26 02:44:12;;;;;;;11.88;3.25;;;16.70;1.00;;;;;;5017893;28;20040;-58
2023/08/26 02:46:38;;;;;;;10.32;3.40;;;16.80;1.00;;;;;;5018791;28;20472;-58
2023/08/26 02:49:03;;;;;;;8.57;2.97;;;16.60;1.00;;;;;;5020850;28;20033;-58
2023/08/26 02:51:29;;;;;;;8.75;3.10;;;16.50;1.00;;;;;;5023388;28;20033;-58
2023/08/26 02:53:55;;;;;;;10.20;3.20;;;16.60;1.00;;;;;;5023489;28;20053;-58
2023/08/26 02:56:20;;;;;;;7.90;3.38;;;16.50;1.00;;;;;;5019770;28;20043;-59
2023/08/26 02:58:46;;;;;;;8.32;3.53;;;16.50;1.00;;;;;;5022011;28;20037;-59
2023/08/26 03:01:11;;;;;;;9.20;3.83;;;16.50;99.90;;;;;;5023505;28;20049;-57
2023/08/26 03:03:37;;;;;;;11.98;3.83;;;16.40;1.00;;;;;;5024225;28;20622;-59
2023/08/26 03:06:02;;;;;;;14.40;3.35;;;16.50;99.90;;;;;;5004243;28;20037;-57
2023/08/26 03:08:28;;;;;;;8.10;3.53;;;16.30;99.90;;;;;;5024136;28;20372;-59
2023/08/26 03:11:04;;;;;;;10.50;3.63;;;16.30;99.90;;;;;;5024716;28;20033;-59
2023/08/26 03:13:30;;;;;;;7.82;3.20;;;15.50;99.90;;;;;;5014174;28;20065;-59
2023/08/26 03:15:57;;;;;;;11.45;3.50;;;16.00;99.90;;;;;;5020072;28;20034;-59
2023/08/26 03:18:22;;;;;;;10.93;3.35;;;16.00;99.90;;;;;;5024938;28;20500;-59
2023/08/26 03:20:48;;;;;;;8.90;3.50;;;16.20;99.90;;;;;;5018060;28;20037;-59
2023/08/26 03:23:14;;;;;;;13.43;3.55;;;16.20;99.90;;;;;;5028499;28;20048;-59
2023/08/26 03:25:40;;;;;;;8.85;3.20;;;16.00;99.90;;;;;;5022655;28;20378;-59
2023/08/26 03:28:08;;;;;;;9.73;3.70;;;16.00;99.90;;;;;;5014160;28;20446;-59
2023/08/26 03:30:35;;;;;;;8.27;3.88;;;16.00;99.90;;;;;;4999863;28;20041;-59
2023/08/26 03:33:01;;;;;;;13.15;3.58;;;15.90;99.90;;;;;;5021699;28;20083;-59
2023/08/26 03:35:27;;;;;;;11.68;3.67;;;16.00;99.90;;;;;;5021422;28;20060;-58
2023/08/26 03:37:52;;;;;;;13.07;3.63;;;16.10;99.90;;;;;;5013257;28;20498;-59
2023/08/26 03:40:22;;;;;;;10.07;3.17;;;16.10;99.90;;;;;;5019590;28;20034;-58
2023/08/26 03:42:51;;;;;;;9.65;3.85;;;16.10;99.90;;;;;;5016912;28;20148;-58
2023/08/26 03:45:17;;;;;;;10.80;3.80;;;16.00;99.90;;;;;;5019871;28;20458;-59
2023/08/26 03:47:42;;;;;;;11.50;3.88;;;15.80;99.90;;;;;;5020677;28;20136;-59
2023/08/26 03:50:08;;;;;;;9.93;3.88;;;15.80;99.90;;;;;;5021602;28;20041;-59
2023/08/26 03:52:34;;;;;;;12.35;3.83;;;15.90;99.90;;;;;;5020559;28;20077;-59
2023/08/26 03:54:59;;;;;;;17.00;4.43;;;15.90;99.90;;;;;;5017057;28;20228;-59
2023/08/26 03:57:25;;;;;;;15.10;3.92;;;15.70;99.90;;;;;;5012806;28;20045;-58
2023/08/26 03:59:50;;;;;;;16.77;3.80;;;15.70;99.90;;;;;;5020639;28;20136;-58
2023/08/26 04:02:16;;;;;;;13.50;4.45;;;15.70;99.90;;;;;;5020648;28;20040;-59
2023/08/26 04:04:42;;;;;;;13.95;3.83;;;15.90;99.90;;;;;;5017408;28;20549;-59
2023/08/26 04:07:07;;;;;;;9.77;3.95;;;15.60;99.90;;;;;;5019894;28;20040;-59
2023/08/26 04:09:33;;;;;;;14.23;4.45;;;15.60;99.90;;;;;;5024201;28;20030;-59
2023/08/26 04:11:59;;;;;;;11.27;3.50;;;15.70;99.90;;;;;;5022089;28;20056;-58
2023/08/26 04:14:24;;;;;;;16.27;4.03;;;15.60;99.90;;;;;;5019491;28;20120;-58
2023/08/26 04:16:50;;;;;;;15.85;3.80;;;15.50;99.90;;;;;;5022121;28;20042;-59
2023/08/26 04:19:16;;;;;;;12.82;4.10;;;15.60;99.90;;;;;;5021391;28;20034;-59
2023/08/26 04:21:42;;;;;;;14.90;3.88;;;15.60;99.90;;;;;;5017311;28;20034;-59
2023/08/26 04:24:07;;;;;;;15.88;4.10;;;15.60;99.90;;;;;;5023567;28;20106;-58
2023/08/26 04:26:33;;;;;;;12.43;3.80;;;15.50;99.90;;;;;;5024420;28;20495;-58
2023/08/26 04:28:58;;;;;;;10.50;4.47;;;15.50;99.90;;;;;;5022219;28;20503;-60
2023/08/26 04:31:24;;;;;;;12.70;3.75;;;15.60;99.90;;;;;;5016400;28;20048;-59
2023/08/26 04:33:51;;;;;;;10.30;4.10;;;15.60;99.90;;;;;;5001617;28;20037;-58
2023/08/26 04:36:17;;;;;;;11.85;3.97;;;15.40;99.90;;;;;;5019119;28;20030;-58
2023/08/26 04:38:42;;;;;;;12.73;4.13;;;15.50;99.90;;;;;;5016028;28;20048;-59
2023/08/26 04:41:09;;;;;;;20.80;4.13;;;15.70;99.90;;;;;;5018703;28;20048;-59
2023/08/26 04:43:35;;;;;;;11.40;3.95;;;15.50;99.90;;;;;;5019040;28;20038;-60
2023/08/26 04:46:01;;;;;;;14.68;4.22;;;15.60;99.90;;;;;;5019259;28;20405;-58
2023/08/26 04:48:28;;;;;;;10.10;3.95;;;15.60;99.90;;;;;;5018198;28;20037;-58
2023/08/26 04:50:54;;;;;;;13.10;4.07;;;15.60;99.90;;;;;;5003950;28;20408;-58
2023/08/26 04:53:20;;;;;;;10.77;3.88;;;15.60;99.90;;;;;;5019099;28;20037;-58
2023/08/26 04:55:50;;;;;;;13.90;3.90;;;15.40;99.90;;;;;;5015302;28;20052;-58
2023/08/26 04:58:16;;;;;;;10.68;4.03;;;15.40;99.90;;;;;;5023298;28;20109;-58
2023/08/26 05:00:41;;;;;;;10.63;3.97;;;15.60;99.90;;;;;;5024222;28;20152;-58
2023/08/26 05:03:07;;;;;;;8.73;3.85;;;15.70;99.90;;;;;;5025490;28;20037;-59
2023/08/26 05:05:33;;;;;;;15.90;4.30;;;15.60;99.90;;;;;;5024663;28;20172;-58
2023/08/26 05:07:59;;;;;;;10.20;3.47;;;15.50;99.90;;;;;;5022157;28;20057;-58
2023/08/26 05:10:24;;;;;;;10.13;3.80;;;15.50;99.90;;;;;;5023593;28;20037;-58
2023/08/26 05:12:50;;;;;;;12.98;3.60;;;15.50;99.90;;;;;;5003646;28;20041;-58
2023/08/26 05:15:15;;;;;;;12.70;3.90;;;15.50;99.90;;;;;;5031623;28;20030;-57
2023/08/26 05:17:41;;;;;;;9.02;3.80;;;15.50;99.90;;;;;;5028012;28;20045;-58
2023/08/26 05:20:07;;;;;;;11.93;3.75;;;15.50;99.90;;;;;;5024479;28;20692;-58
2023/08/26 05:22:33;;;;;;;13.32;3.60;;;15.70;99.90;;;;;;5026964;28;20140;-58
2023/08/26 05:24:58;;;;;;;13.38;3.53;;;15.60;99.90;;;;;;5022997;28;20037;-58
2023/08/26 05:27:26;;;;;;;14.55;3.92;;;15.60;99.90;;;;;;5030914;28;20041;-58
2023/08/26 05:29:52;;;;;;;15.00;3.80;;;15.70;99.90;;;;;;5025272;28;20448;-58
2023/08/26 05:32:18;;;;;;;11.63;3.42;;;15.80;99.90;;;;;;5020779;28;20037;-58
2023/08/26 05:34:44;;;;;;;12.23;4.03;;;15.90;99.90;;;;;;4997986;28;20479;-58
2023/08/26 05:37:10;;;;;;;10.23;3.60;;;15.90;99.90;;;;;;5024294;28;20041;-58
2023/08/26 05:39:35;;;;;;;10.68;3.53;;;16.00;99.90;;;;;;5022560;28;20351;-58
2023/08/26 05:42:01;;;;;;;9.10;2.78;;;16.00;99.90;;;;;;5020985;28;20197;-58
2023/08/26 05:44:26;;;;;;;11.18;3.60;;;15.80;99.90;;;;;;5023093;28;20040;-56
2023/08/26 05:46:52;;;;;;;17.95;3.58;;;16.00;99.90;;;;;;5004853;28;20172;-58
2023/08/26 05:49:18;;;;;;;15.82;3.70;;;15.90;99.90;;;;;;5027175;28;20041;-58
2023/08/26 05:51:43;;;;;;;11.73;2.80;;;15.90;99.90;;;;;;5024557;28;20444;-58
2023/08/26 05:54:09;;;;;;;10.60;3.25;;;15.90;99.90;;;;;;5022737;28;20103;-58
2023/08/26 05:56:34;;;;;;;10.65;2.72;;;16.00;99.90;;;;;;5024399;28;20033;-58
2023/08/26 05:59:00;;;;;;;8.77;2.50;;;15.90;99.90;;;;;;5002394;28;20030;-58
2023/08/26 06:01:25;;;;;;;12.20;2.88;;;16.00;99.90;;;;;;5022505;28;20041;-58
2023/08/26 06:03:52;;;;;;;6.70;2.53;;;16.00;99.90;;;;;;5021644;28;20038;-58
2023/08/26 06:06:17;;;;;;;8.38;2.38;;;16.00;99.90;;;;;;5022684;28;20034;-58
2023/08/26 06:08:43;;;;;;;6.68;2.40;;;16.20;99.90;;;;;;5005399;28;20049;-58
2023/08/26 06:11:09;;;;;;;6.45;2.47;;;16.20;99.90;;;;;;5026731;28;20039;-57
2023/08/26 06:13:34;;;;;;;13.52;2.38;;;16.30;99.90;;;;;;5026700;28;20211;-58
2023/08/26 06:16:00;;;;;;;10.07;2.38;;;16.30;99.90;;;;;;5023557;28;20330;-58
2023/08/26 06:18:25;;;;;;;9.65;2.20;;;16.20;99.90;;;;;;5024344;28;20053;-58
2023/08/26 06:20:52;;;;;;;7.60;2.33;;;16.40;99.90;;;;;;5020270;28;20102;-58
2023/08/26 06:23:20;;;;;;;6.45;2.15;;;16.50;99.90;;;;;;5020110;28;20128;-58
2023/08/26 06:25:56;;;;;;;9.43;2.22;;;16.50;99.90;;;;;;5021575;28;20053;-58
2023/08/26 06:28:23;;;;;;;6.05;2.22;;;16.40;99.90;;;;;;5025007;28;20068;-58
2023/08/26 06:30:49;;;;;;;8.45;2.50;;;16.50;99.90;;;;;;5026346;28;20041;-58
2023/08/26 06:33:15;;;;;;;9.85;2.42;;;16.60;99.90;;;;;;5022553;28;20037;-58
2023/08/26 06:35:46;;;;;;;8.35;2.03;;;16.50;99.90;;;;;;5022948;28;20512;-58
2023/08/26 06:38:12;;;;;;;8.90;2.30;;;16.60;99.90;;;;;;5019612;28;20037;-57
2023/08/26 06:40:37;;;;;;;7.93;1.77;;;16.70;99.90;;;;;;5019659;28;20120;-57
2023/08/26 06:43:03;;;;;;;6.72;2.30;;;16.80;99.90;;;;;;5004080;28;20391;-59
2023/08/26 06:45:30;;;;;;;5.05;2.00;;;16.80;99.90;;;;;;5024413;28;20033;-58
2023/08/26 06:47:56;;;;;;;5.22;2.17;;;16.90;99.90;;;;;;5012557;28;20438;-58
2023/08/26 06:50:22;;;;;;;7.97;2.20;;;17.10;99.90;;;;;;5007842;28;20047;-59
2023/08/26 06:52:49;;;;;;;9.20;2.03;;;17.00;99.90;;;;;;5022638;28;20056;-58
2023/08/26 06:55:15;;;;;;;5.45;2.10;;;17.00;99.90;;;;;;5028604;28;20433;-58
2023/08/26 06:57:41;;;;;;;8.73;2.58;;;17.10;99.90;;;;;;5027644;28;20042;-58
2023/08/26 07:00:08;;;;;;;8.70;2.10;;;17.10;99.90;;;;;;5022153;28;20426;-58
2023/08/26 07:02:34;;;;;;;7.05;2.15;;;17.20;99.90;;;;;;5023687;28;20033;-58
2023/08/26 07:05:00;;;;;;;9.20;2.38;;;17.20;99.90;;;;;;5030042;28;20048;-58
2023/08/26 07:07:25;;;;;;;7.95;1.88;;;17.30;99.90;;;;;;5027990;28;20035;-58
2023/08/26 07:09:51;;;;;;;6.85;1.83;;;17.20;99.90;;;;;;5028118;28;20048;-58
2023/08/26 07:12:16;;;;;;;10.38;2.33;;;17.20;99.90;;;;;;5023500;28;20311;-58
2023/08/26 07:14:42;;;;;;;5.28;1.80;;;17.20;99.90;;;;;;5015015;28;20045;-58
2023/08/26 07:17:07;;;;;;;8.40;1.80;;;17.20;99.90;;;;;;5022123;28;20503;-58
2023/08/26 07:19:33;;;;;;;8.48;1.95;;;17.30;99.90;;;;;;5027424;28;20032;-59
2023/08/26 07:21:58;;;;;;;7.05;2.38;;;17.40;99.90;;;;;;5024537;28;20369;-58
2023/08/26 07:24:24;;;;;;;7.82;2.22;;;17.50;99.90;;;;;;5020601;28;20410;-58
2023/08/26 07:26:50;;;;;;;8.20;2.03;;;17.60;99.90;;;;;;5020623;28;20409;-58
2023/08/26 07:29:15;;;;;;;6.35;1.95;;;17.60;99.90;;;;;;5009373;28;20033;-57
2023/08/26 07:31:41;;;;;;;7.22;2.05;;;17.70;99.90;;;;;;5026943;28;20458;-58
2023/08/26 07:34:07;;;;;;;6.95;1.80;;;17.70;99.90;;;;;;5017829;28;20037;-58
2023/08/26 07:36:33;;;;;;;10.50;1.70;;;17.70;99.90;;;;;;5025720;28;20132;-59
2023/08/26 07:38:59;;;;;;;8.45;2.10;;;17.70;99.90;;;;;;5021492;28;20136;-58
2023/08/26 07:41:25;;;;;;;5.75;2.00;;;17.70;99.90;;;;;;5022461;28;20048;-58
2023/08/26 07:43:51;;;;;;;8.13;1.92;;;17.90;99.90;;;;;;5022224;28;20025;-59
2023/08/26 07:46:18;;;;;;;6.72;1.73;;;17.90;99.90;;;;;;5014784;28;20037;-58
2023/08/26 07:48:44;;;;;;;7.00;1.77;;;17.90;99.90;;;;;;5022708;28;20077;-58
2023/08/26 07:51:10;;;;;;;6.20;2.00;;;18.00;99.90;;;;;;5022405;28;20033;-58
2023/08/26 07:53:36;;;;;;;6.18;2.00;;;18.00;99.90;;;;;;5017795;28;20120;-58
2023/08/26 07:56:01;;;;;;;7.60;1.90;;;18.00;99.90;;;;;;5021919;28;20037;-58
2023/08/26 07:58:27;;;;;;;8.77;1.90;;;18.20;99.90;;;;;;5028873;28;20130;-58
2023/08/26 08:00:52;;;;;;;9.57;2.42;;;18.10;99.90;;;;;;5026395;28;20341;-58
2023/08/26 08:03:18;;;;;;;7.43;1.88;;;18.20;99.90;;;;;;5029827;28;20025;-58
2023/08/26 08:05:44;;;;;;;10.95;1.70;;;18.40;99.90;;;;;;5025390;28;20845;-58
2023/08/26 08:08:09;;;;;;;6.32;1.75;;;18.50;99.90;;;;;;5027880;28;20098;-59
2023/08/26 08:10:35;;;;;;;10.07;2.20;;;18.60;99.90;;;;;;5020122;28;20226;-58
2023/08/26 08:13:02;;;;;;;5.25;1.92;;;18.60;99.90;;;;;;5016200;28;20481;-58
2023/08/26 08:15:27;;;;;;;9.98;1.98;;;18.80;99.90;;;;;;5013323;28;20437;-59
2023/08/26 08:17:54;;;;;;;6.07;1.70;;;18.70;99.90;;;;;;5012926;28;20098;-59
2023/08/26 08:20:19;;;;;;;6.90;1.67;;;18.60;99.90;;;;;;5004686;28;20037;-57
2023/08/26 08:22:45;;;;;;;5.35;1.50;;;18.70;99.90;;;;;;5010681;28;20060;-56
2023/08/26 08:25:11;;;;;;;5.18;1.70;;;18.70;99.90;;;;;;5026076;28;20037;-57
2023/08/26 08:27:37;;;;;;;10.23;1.70;;;18.80;99.90;;;;;;5022998;28;20133;-57
2023/08/26 08:30:04;;;;;;;7.93;1.63;;;18.70;99.90;;;;;;5018617;28;20625;-57
2023/08/26 08:32:30;;;;;;;6.32;1.83;;;18.70;99.90;;;;;;5028265;28;20044;-57
2023/08/26 08:34:55;;;;;;;8.73;1.50;;;18.90;99.90;;;;;;5029455;28;20034;-57
2023/08/26 08:37:21;;;;;;;9.70;2.00;;;19.00;99.90;;;;;;5029089;28;20465;-57
2023/08/26 08:39:47;;;;;;;5.85;1.92;;;19.10;99.90;;;;;;5026888;28;20071;-57
2023/08/26 08:42:15;;;;;;;8.80;1.88;;;19.20;99.90;;;;;;5029111;28;20463;-58
2023/08/26 08:44:42;;;;;;;7.65;1.67;;;19.40;99.90;;;;;;5023316;28;20358;-58
2023/08/26 08:47:08;;;;;;;7.07;2.13;;;19.40;99.90;;;;;;5025945;28;20488;-58
2023/08/26 08:49:35;;;;;;;3.97;1.38;;;19.40;99.90;;;;;;5007731;28;20053;-57
2023/08/26 08:52:03;;;;;;;7.35;2.00;;;19.50;99.90;;;;;;5011314;28;20029;-58
2023/08/26 08:54:29;;;;;;;3.70;1.40;;;19.50;99.90;;;;;;5016373;28;20095;-58
2023/08/26 08:56:56;;;;;;;7.40;1.60;;;19.50;99.90;;;;;;5022565;28;20030;-58
2023/08/26 08:59:22;;;;;;;9.07;2.17;;;19.50;99.90;;;;;;5025377;28;20056;-57
2023/08/26 09:01:48;;;;;;;6.75;1.70;;;19.60;99.90;;;;;;5023389;28;20041;-58
2023/08/26 09:04:14;;;;;;;3.30;1.40;;;19.60;99.90;;;;;;5025115;28;20076;-58
2023/08/26 09:06:40;;;;;;;4.53;1.30;;;19.70;99.90;;;;;;5025639;28;20057;-58
2023/08/26 09:09:10;;;;;;;8.52;1.77;;;19.60;99.90;;;;;;5024542;28;20053;-58
2023/08/26 09:11:37;;;;;;;5.60;1.42;;;19.80;99.90;;;;;;5027587;28;20029;-57
2023/08/26 09:14:04;;;;;;;6.95;1.70;;;19.80;99.90;;;;;;5003609;28;20564;-58
2023/08/26 09:16:37;;;;;;;11.63;1.85;;;19.80;99.90;;;;;;5026395;28;20030;-58
2023/08/26 09:19:07;;;;;;;3.80;1.50;;;19.90;99.90;;;;;;5025408;28;20048;-58
2023/08/26 09:21:33;;;;;;;6.63;1.98;;;19.90;99.90;;;;;;5015845;28;20034;-57
2023/08/26 09:23:59;;;;;;;8.25;1.60;;;20.00;99.90;;;;;;5012674;28;20045;-58
2023/08/26 09:26:26;;;;;;;6.25;1.40;;;19.90;99.90;;;;;;5021359;28;20030;-58
2023/08/26 09:28:52;;;;;;;7.22;3.22;;;19.80;99.90;;;;;;5015103;28;20026;-58
2023/08/26 09:31:19;;;;;;;5.68;1.90;;;19.80;99.90;;;;;;5023994;28;20030;-57
2023/08/26 09:33:59;;;;;;;4.97;1.35;;;19.80;99.90;;;;;;5025753;28;20056;-58
2023/08/26 09:36:51;;;;;;;10.90;1.70;;;19.90;99.90;;;;;;5028399;28;20025;-58
2023/08/26 09:39:17;;;;;;;8.07;1.70;;;20.00;99.90;;;;;;5016225;28;20030;-58
2023/08/26 09:41:44;;;;;;;4.55;1.40;;;20.10;99.90;;;;;;5028501;28;20040;-58
2023/08/26 09:44:10;;;;;;;7.43;1.67;;;20.20;99.90;;;;;;5028218;28;20481;-59
2023/08/26 09:46:36;;;;;;;2.95;1.10;;;20.30;99.90;;;;;;5021057;28;20315;-57
2023/08/26 09:49:03;;;;;;;5.35;1.33;;;20.30;99.90;;;;;;5033139;28;20068;-58
2023/08/26 09:51:30;;;;;;;2.42;1.00;;;20.40;99.90;;;;;;5012423;28;20053;-59
2023/08/26 09:53:56;;;;;;;5.20;1.30;;;20.50;99.90;;;;;;5016779;28;20030;-56
2023/08/26 09:56:24;;;;;;;4.68;1.10;;;20.40;99.90;;;;;;5022584;28;20366;-58
2023/08/26 09:58:54;;;;;;;4.95;1.45;;;20.30;99.90;;;;;;5023354;28;20039;-59
2023/08/26 10:01:20;;;;;;;7.78;1.40;;;20.40;99.90;;;;;;5024048;28;20026;-58
2023/08/26 10:03:52;;;;;;;4.95;1.40;;;20.40;99.90;;;;;;5006836;28;20045;-58
2023/08/26 10:06:21;;;;;;;2.88;1.30;;;20.50;99.90;;;;;;5027470;28;20485;-58
2023/08/26 10:08:54;;;;;;;6.63;1.25;;;20.40;99.90;;;;;;5021923;28;20079;-58
2023/08/26 10:11:21;;;;;;;3.40;1.40;;;20.40;99.90;;;;;;5015931;28;20478;-58
2023/08/26 10:13:50;;;;;;;6.47;1.40;;;20.40;99.90;;;;;;5025975;28;20032;-58
2023/08/26 10:16:18;;;;;;;4.60;1.23;;;20.60;99.90;;;;;;5020396;28;20033;-58
2023/08/26 10:18:48;;;;;;;4.55;1.60;;;20.60;99.90;;;;;;5026022;28;20480;-58
2023/08/26 10:21:14;;;;;;;3.72;1.10;;;20.60;99.90;;;;;;5019204;28;20072;-58
2023/08/26 10:23:40;;;;;;;7.80;1.58;;;20.70;99.90;;;;;;5030139;28;20104;-58
2023/08/26 10:26:07;;;;;;;6.45;1.25;;;20.70;99.90;;;;;;5026069;28;20061;-58
2023/08/26 10:28:34;;;;;;;3.58;1.10;;;20.80;99.90;;;;;;5032991;28;20037;-56
2023/08/26 10:31:00;;;;;;;6.22;1.85;;;20.80;99.90;;;;;;5015811;28;20404;-57
2023/08/26 10:33:26;;;;;;;4.88;1.60;;;20.90;99.90;;;;;;5021696;28;20033;-58
2023/08/26 10:35:59;;;;;;;7.75;1.70;;;21.00;99.90;;;;;;5023870;28;20406;-56
2023/08/26 10:38:25;;;;;;;5.15;1.30;;;21.00;99.90;;;;;;5002023;28;20343;-57
2023/08/26 10:41:07;;;;;;;5.35;1.35;;;21.00;99.90;;;;;;5013295;28;20029;-57
2023/08/26 10:43:33;;;;;;;7.88;1.60;;;21.00;99.90;;;;;;5013651;28;20062;-57
2023/08/26 10:45:59;;;;;;;4.50;1.20;;;21.00;99.90;;;;;;5018847;28;20441;-57
2023/08/26 10:48:25;;;;;;;3.22;1.30;;;21.10;99.90;;;;;;5014025;28;20624;-57
2023/08/26 10:51:01;;;;;;;3.17;1.40;;;21.10;99.90;;;;;;5016435;28;20036;-56
2023/08/26 10:53:27;;;;;;;3.50;1.10;;;21.10;99.90;;;;;;5007440;28;20650;-57
2023/08/26 10:56:10;;;;;;;4.88;1.35;;;21.20;99.90;;;;;;5022571;28;20120;-57
2023/08/26 10:58:48;;;;;;;6.20;1.30;;;21.40;99.90;;;;;;5014826;28;20041;-57
2023/08/26 11:01:16;;;;;;;4.75;1.40;;;21.20;99.90;;;;;;5016963;28;20041;-56
2023/08/26 11:03:45;;;;;;;2.53;1.20;;;21.10;99.90;;;;;;5010452;28;21123;-57
2023/08/26 11:06:18;;;;;;;3.67;1.50;;;21.00;99.90;;;;;;5007865;28;20242;-55
2023/08/26 11:08:53;;;;;;;4.93;1.50;;;20.80;99.90;;;;;;5024079;28;20887;-56
2023/08/26 11:11:19;;;;;;;5.65;1.20;;;20.80;99.90;;;;;;5025810;28;20068;-56
2023/08/26 11:13:46;;;;;;;4.28;1.30;;;20.70;99.90;;;;;;5022282;28;20060;-58
2023/08/26 11:16:12;;;;;;;4.55;1.60;;;20.70;99.90;;;;;;5002332;28;20041;-57
2023/08/26 11:18:37;;;;;;;3.70;1.48;;;20.70;99.90;;;;;;5004865;28;20064;-57
2023/08/26 11:21:05;;;;;;;4.28;1.40;;;20.70;99.90;;;;;;5016476;28;20079;-57
2023/08/26 11:23:32;;;;;;;4.85;1.20;;;20.70;99.90;;;;;;5023415;28;20388;-58
2023/08/26 11:25:58;;;;;;;5.40;1.88;;;20.80;99.90;;;;;;5023963;28;20540;-57
2023/08/26 11:28:27;;;;;;;6.63;1.42;;;20.80;99.90;;;;;;5022689;28;20045;-57
2023/08/26 11:30:53;;;;;;;3.88;1.15;;;20.90;99.90;;;;;;5022668;28;20034;-57
2023/08/26 11:33:21;;;;;;;2.38;1.30;;;21.10;99.90;;;;;;5033004;28;20461;-57
2023/08/26 11:35:48;;;;;;;4.32;1.50;;;21.20;99.90;;;;;;5023211;28;20064;-57
2023/08/26 11:38:15;;;;;;;3.78;1.45;;;21.30;99.90;;;;;;5012615;28;20060;-56
2023/08/26 11:40:41;;;;;;;3.78;1.40;;;21.10;99.90;;;;;;5023199;28;20039;-57
2023/08/26 11:43:11;;;;;;;3.53;1.08;;;21.20;99.90;;;;;;5025992;28;20034;-57
2023/08/26 11:45:38;;;;;;;4.47;1.50;;;21.20;99.90;;;;;;5024064;28;20428;-56
2023/08/26 11:48:04;;;;;;;6.05;1.23;;;21.30;99.90;;;;;;5022656;28;20690;-57
2023/08/26 11:50:31;;;;;;;5.30;1.10;;;21.30;99.90;;;;;;5025657;28;20041;-57
2023/08/26 11:53:00;;;;;;;3.22;1.30;;;21.30;99.90;;;;;;5005798;28;20573;-57
2023/08/26 11:55:28;;;;;;;3.53;1.38;;;21.40;99.90;;;;;;5004850;28;20508;-56
2023/08/26 11:57:54;;;;;;;4.38;1.50;;;21.30;99.90;;;;;;5022983;28;20042;-56
2023/08/26 12:00:23;;;;;;;5.03;1.42;;;21.30;99.90;;;;;;5004943;28;20033;-56
2023/08/26 12:02:50;;;;;;;3.60;1.52;;;21.30;99.90;;;;;;5004497;28;20049;-56
2023/08/26 12:05:17;;;;;;;2.83;1.40;;;21.40;99.90;;;;;;5022216;28;20029;-56
2023/08/26 12:07:45;;;;;;;5.40;1.67;;;21.40;99.90;;;;;;5026895;28;20168;-57
2023/08/26 12:10:11;;;;;;;4.68;1.50;;;21.50;99.90;;;;;;5026492;28;20128;-57
2023/08/26 12:12:38;;;;;;;4.90;1.20;;;21.40;99.90;;;;;;5027092;28;20034;-57
2023/08/26 12:15:30;;;;;;;3.60;1.52;;;21.40;99.90;;;;;;5025874;28;20252;-57
2023/08/26 12:17:58;;;;;;;7.43;1.50;;;21.40;99.90;;;;;;5016216;28;20037;-57
2023/08/26 12:20:27;;;;;;;4.65;1.45;;;21.40;99.90;;;;;;5024662;28;20139;-57
2023/08/26 12:22:58;;;;;;;6.82;1.42;;;21.40;99.90;;;;;;5024655;28;20466;-57
2023/08/26 12:25:45;;;;;;;3.35;1.23;;;21.30;99.90;;;;;;5025440;28;20053;-57
2023/08/26 12:28:19;;;;;;;4.93;1.35;;;21.40;99.90;;;;;;5028058;28;20469;-56
2023/08/26 12:30:47;;;;;;;2.22;1.10;;;21.40;99.90;;;;;;5019198;28;20047;-56
2023/08/26 12:33:14;;;;;;;8.45;1.33;;;21.50;99.90;;;;;;5033853;28;20512;-56
2023/08/26 12:35:40;;;;;;;4.93;1.40;;;21.40;99.90;;;;;;5025560;28;20493;-57
2023/08/26 12:38:06;;;;;;;6.70;1.40;;;21.50;99.90;;;;;;5022465;28;20048;-58
2023/08/26 12:40:36;;;;;;;2.50;1.40;;;21.60;99.90;;;;;;5020706;28;20485;-58